KBLF

Mercer County Airport

Bluefield, West Virginia, USA
METAR KBLF 220352Z AUTO VRB03KT 10SM SCT075 OVC090 18/16 A3021 RMK AO2 SLP194 T01830161
Observed Flight Rules
May-22 @ 03:52 UTC (6 hours ago) Visual Flight Rules
Wind Visibility Clouds
Variable at 3 knots 10 miles
  • Scattered at 7,500' AGL
  • Overcast at 9,000' AGL
Temperatures Readings
Current 18°C / 64°F
Dewpoint 16°C / 61°F
Humidity 88%
Altimeter 30.21" Hg
Pressure 1019.4 hPa
Elevation 873
METAR KBLF 220352Z AUTO VRB03KT 10SM SCT075 OVC090 18/16 A3021 RMK AO2 SLP194 T01830161
Observed Flight Rules
May-22 @ 03:52 UTC
(6 hours ago)
VFR
Wind Visibility
Variable at 3 knots 10 miles
Clouds
  • Scattered at 7,500' AGL
  • Overcast at 9,000' AGL
Temperature Dewpoint
18°C / 64°F 16°C / 61°F
Humidity Altimeter Pressure
88% 30.21" Hg 1019.4 hPa